sensor_id;sensor_type;location;lat;lon;timestamp;temperature;humidity
74901;DHT22;63461;51.416;6.758;2023-04-03T00:01:08;4.90;99.90
74901;DHT22;63461;51.416;6.758;2023-04-03T00:03:35;4.90;99.90
74901;DHT22;63461;51.416;6.758;2023-04-03T00:06:09;4.80;99.90
74901;DHT22;63461;51.416;6.758;2023-04-03T00:08:37;4.80;99.90
74901;DHT22;63461;51.416;6.758;2023-04-03T00:11:04;4.70;99.90
74901;DHT22;63461;51.416;6.758;2023-04-03T00:13:31;4.70;99.90
74901;DHT22;63461;51.416;6.758;2023-04-03T00:16:00;4.60;99.90
74901;DHT22;63461;51.416;6.758;2023-04-03T00:18:29;4.70;99.90
74901;DHT22;63461;51.416;6.758;2023-04-03T00:21:16;4.70;99.90
74901;DHT22;63461;51.416;6.758;2023-04-03T00:23:45;4.60;99.90
74901;DHT22;63461;51.416;6.758;2023-04-03T00:26:22;4.60;99.90
74901;DHT22;63461;51.416;6.758;2023-04-03T00:28:51;4.60;99.90
74901;DHT22;63461;51.416;6.758;2023-04-03T00:31:17;4.60;99.90
74901;DHT22;63461;51.416;6.758;2023-04-03T00:33:46;4.60;99.90
74901;DHT22;63461;51.416;6.758;2023-04-03T00:36:16;4.60;99.90
74901;DHT22;63461;51.416;6.758;2023-04-03T00:38:42;4.70;99.90
74901;DHT22;63461;51.416;6.758;2023-04-03T00:41:11;4.70;99.90
74901;DHT22;63461;51.416;6.758;2023-04-03T00:43:37;4.60;99.90
74901;DHT22;63461;51.416;6.758;2023-04-03T00:46:03;4.50;99.90
74901;DHT22;63461;51.416;6.758;2023-04-03T00:48:48;4.50;99.90
74901;DHT22;63461;51.416;6.758;2023-04-03T00:51:23;4.60;99.90
74901;DHT22;63461;51.416;6.758;2023-04-03T00:54:01;4.60;99.90
74901;DHT22;63461;51.416;6.758;2023-04-03T00:56:29;4.60;99.90
74901;DHT22;63461;51.416;6.758;2023-04-03T00:59:05;4.60;99.90
74901;DHT22;63461;51.416;6.758;2023-04-03T01:01:32;4.60;99.90
74901;DHT22;63461;51.416;6.758;2023-04-03T01:03:59;4.60;99.90
74901;DHT22;63461;51.416;6.758;2023-04-03T01:06:47;4.60;99.90
74901;DHT22;63461;51.416;6.758;2023-04-03T01:10:08;4.70;99.90
74901;DHT22;63461;51.416;6.758;2023-04-03T01:13:22;4.70;99.90
74901;DHT22;63461;51.416;6.758;2023-04-03T01:15:50;4.60;99.90
74901;DHT22;63461;51.416;6.758;2023-04-03T01:18:20;4.60;99.90
74901;DHT22;63461;51.416;6.758;2023-04-03T01:25:51;4.60;99.90
74901;DHT22;63461;51.416;6.758;2023-04-03T01:32:00;4.60;99.90
74901;DHT22;63461;51.416;6.758;2023-04-03T01:35:29;4.60;99.90
74901;DHT22;63461;51.416;6.758;2023-04-03T01:38:45;4.60;99.90
74901;DHT22;63461;51.416;6.758;2023-04-03T01:41:32;4.60;99.90
74901;DHT22;63461;51.416;6.758;2023-04-03T01:44:29;4.60;99.90
74901;DHT22;63461;51.416;6.758;2023-04-03T01:47:57;4.60;99.90
74901;DHT22;63461;51.416;6.758;2023-04-03T01:53:16;4.60;99.90
74901;DHT22;63461;51.416;6.758;2023-04-03T01:55:48;4.60;99.90
74901;DHT22;63461;51.416;6.758;2023-04-03T01:58:22;4.60;99.90
74901;DHT22;63461;51.416;6.758;2023-04-03T02:01:04;4.60;99.90
74901;DHT22;63461;51.416;6.758;2023-04-03T02:03:33;4.60;99.90
74901;DHT22;63461;51.416;6.758;2023-04-03T02:06:06;4.60;99.90
74901;DHT22;63461;51.416;6.758;2023-04-03T02:08:36;4.50;99.90
74901;DHT22;63461;51.416;6.758;2023-04-03T02:11:17;4.60;99.90
74901;DHT22;63461;51.416;6.758;2023-04-03T02:13:42;4.50;99.90
74901;DHT22;63461;51.416;6.758;2023-04-03T02:16:09;4.50;99.90
74901;DHT22;63461;51.416;6.758;2023-04-03T02:18:36;4.50;99.90
74901;DHT22;63461;51.416;6.758;2023-04-03T02:21:02;4.50;99.90
74901;DHT22;63461;51.416;6.758;2023-04-03T02:23:28;4.40;99.90
74901;DHT22;63461;51.416;6.758;2023-04-03T02:26:03;4.40;99.90
74901;DHT22;63461;51.416;6.758;2023-04-03T02:28:31;4.50;99.90
74901;DHT22;63461;51.416;6.758;2023-04-03T02:31:18;4.40;99.90
74901;DHT22;63461;51.416;6.758;2023-04-03T02:34:03;4.50;99.90
74901;DHT22;63461;51.416;6.758;2023-04-03T02:36:29;4.40;99.90
74901;DHT22;63461;51.416;6.758;2023-04-03T02:39:25;4.40;99.90
74901;DHT22;63461;51.416;6.758;2023-04-03T02:41:55;4.40;99.90
74901;DHT22;63461;51.416;6.758;2023-04-03T02:44:35;4.50;99.90
74901;DHT22;63461;51.416;6.758;2023-04-03T02:47:01;4.40;99.90
74901;DHT22;63461;51.416;6.758;2023-04-03T02:49:28;4.40;99.90
74901;DHT22;63461;51.416;6.758;2023-04-03T02:51:54;4.30;99.90
74901;DHT22;63461;51.416;6.758;2023-04-03T02:54:20;4.30;99.90
74901;DHT22;63461;51.416;6.758;2023-04-03T02:56:51;4.30;99.90
74901;DHT22;63461;51.416;6.758;2023-04-03T02:59:16;4.40;99.90
74901;DHT22;63461;51.416;6.758;2023-04-03T03:01:43;4.30;99.90
74901;DHT22;63461;51.416;6.758;2023-04-03T03:04:09;4.30;99.90
74901;DHT22;63461;51.416;6.758;2023-04-03T03:06:34;4.30;99.90
74901;DHT22;63461;51.416;6.758;2023-04-03T03:09:00;4.30;99.90
74901;DHT22;63461;51.416;6.758;2023-04-03T03:11:26;4.30;99.90
74901;DHT22;63461;51.416;6.758;2023-04-03T03:13:52;4.30;99.90
74901;DHT22;63461;51.416;6.758;2023-04-03T03:16:18;4.30;99.90
74901;DHT22;63461;51.416;6.758;2023-04-03T03:18:46;4.20;99.90
74901;DHT22;63461;51.416;6.758;2023-04-03T03:21:14;4.30;99.90
74901;DHT22;63461;51.416;6.758;2023-04-03T03:23:40;4.20;99.90
74901;DHT22;63461;51.416;6.758;2023-04-03T03:26:11;4.20;99.90
74901;DHT22;63461;51.416;6.758;2023-04-03T03:28:38;4.20;99.90
74901;DHT22;63461;51.416;6.758;2023-04-03T03:31:08;4.20;99.90
74901;DHT22;63461;51.416;6.758;2023-04-03T03:33:36;4.20;99.90
74901;DHT22;63461;51.416;6.758;2023-04-03T03:38:30;4.20;99.90
74901;DHT22;63461;51.416;6.758;2023-04-03T03:40:57;4.10;99.90
74901;DHT22;63461;51.416;6.758;2023-04-03T03:43:23;4.20;99.90
74901;DHT22;63461;51.416;6.758;2023-04-03T03:45:52;4.10;99.90
74901;DHT22;63461;51.416;6.758;2023-04-03T03:48:19;4.10;99.90
74901;DHT22;63461;51.416;6.758;2023-04-03T03:50:45;4.10;99.90
74901;DHT22;63461;51.416;6.758;2023-04-03T03:53:11;4.10;99.90
74901;DHT22;63461;51.416;6.758;2023-04-03T03:55:37;4.00;99.90
74901;DHT22;63461;51.416;6.758;2023-04-03T03:58:03;4.00;99.90
74901;DHT22;63461;51.416;6.758;2023-04-03T04:00:30;4.00;99.90
74901;DHT22;63461;51.416;6.758;2023-04-03T04:02:57;4.00;99.90
74901;DHT22;63461;51.416;6.758;2023-04-03T04:05:24;4.00;99.90
74901;DHT22;63461;51.416;6.758;2023-04-03T04:07:51;4.00;99.90
74901;DHT22;63461;51.416;6.758;2023-04-03T04:10:17;4.00;99.90
74901;DHT22;63461;51.416;6.758;2023-04-03T04:12:44;4.00;99.90
74901;DHT22;63461;51.416;6.758;2023-04-03T04:15:10;3.90;99.90
74901;DHT22;63461;51.416;6.758;2023-04-03T04:17:37;3.90;99.90
74901;DHT22;63461;51.416;6.758;2023-04-03T04:20:06;4.00;99.90
74901;DHT22;63461;51.416;6.758;2023-04-03T04:22:33;3.90;99.90
74901;DHT22;63461;51.416;6.758;2023-04-03T04:24:58;3.80;99.90
74901;DHT22;63461;51.416;6.758;2023-04-03T04:27:25;3.90;99.90
74901;DHT22;63461;51.416;6.758;2023-04-03T04:29:51;3.90;99.90
74901;DHT22;63461;51.416;6.758;2023-04-03T04:32:17;3.80;99.90
74901;DHT22;63461;51.416;6.758;2023-04-03T04:34:44;3.80;99.90
74901;DHT22;63461;51.416;6.758;2023-04-03T04:37:10;3.80;99.90
74901;DHT22;63461;51.416;6.758;2023-04-03T04:39:38;3.80;99.90
74901;DHT22;63461;51.416;6.758;2023-04-03T04:42:05;3.70;99.90
74901;DHT22;63461;51.416;6.758;2023-04-03T04:44:33;3.80;99.90
74901;DHT22;63461;51.416;6.758;2023-04-03T04:49:48;3.70;99.90
74901;DHT22;63461;51.416;6.758;2023-04-03T04:52:17;3.70;99.90
74901;DHT22;63461;51.416;6.758;2023-04-03T04:55:31;3.70;99.90
74901;DHT22;63461;51.416;6.758;2023-04-03T04:57:57;3.70;99.90
74901;DHT22;63461;51.416;6.758;2023-04-03T05:00:23;3.70;99.90
74901;DHT22;63461;51.416;6.758;2023-04-03T05:02:49;3.60;99.90
74901;DHT22;63461;51.416;6.758;2023-04-03T05:05:17;3.70;99.90
74901;DHT22;63461;51.416;6.758;2023-04-03T05:07:43;3.70;99.90
74901;DHT22;63461;51.416;6.758;2023-04-03T05:10:09;3.60;99.90
74901;DHT22;63461;51.416;6.758;2023-04-03T05:12:35;3.60;99.90
74901;DHT22;63461;51.416;6.758;2023-04-03T05:15:03;3.60;99.90
74901;DHT22;63461;51.416;6.758;2023-04-03T05:22:14;3.70;99.90
74901;DHT22;63461;51.416;6.758;2023-04-03T05:25:06;3.60;99.90
74901;DHT22;63461;51.416;6.758;2023-04-03T05:40:53;3.60;99.90
74901;DHT22;63461;51.416;6.758;2023-04-03T05:43:35;3.70;99.90
74901;DHT22;63461;51.416;6.758;2023-04-03T05:46:15;3.70;99.90
74901;DHT22;63461;51.416;6.758;2023-04-03T05:48:57;3.60;99.90
74901;DHT22;63461;51.416;6.758;2023-04-03T05:51:55;3.70;99.90
74901;DHT22;63461;51.416;6.758;2023-04-03T05:54:54;3.60;99.90
74901;DHT22;63461;51.416;6.758;2023-04-03T05:57:30;3.70;99.90
74901;DHT22;63461;51.416;6.758;2023-04-03T06:00:24;3.70;99.90
74901;DHT22;63461;51.416;6.758;2023-04-03T06:03:02;3.70;99.90
74901;DHT22;63461;51.416;6.758;2023-04-03T06:06:01;3.70;99.90
74901;DHT22;63461;51.416;6.758;2023-04-03T06:08:35;3.70;99.90
74901;DHT22;63461;51.416;6.758;2023-04-03T06:11:19;3.70;99.90
74901;DHT22;63461;51.416;6.758;2023-04-03T06:14:16;3.80;99.90
74901;DHT22;63461;51.416;6.758;2023-04-03T06:17:31;3.80;99.90
74901;DHT22;63461;51.416;6.758;2023-04-03T06:20:56;3.80;99.90
74901;DHT22;63461;51.416;6.758;2023-04-03T06:24:11;3.70;99.90
74901;DHT22;63461;51.416;6.758;2023-04-03T06:27:36;3.80;99.90
74901;DHT22;63461;51.416;6.758;2023-04-03T06:30:29;3.80;99.90
74901;DHT22;63461;51.416;6.758;2023-04-03T06:37:16;3.90;99.90
74901;DHT22;63461;51.416;6.758;2023-04-03T06:39:56;3.90;99.90
74901;DHT22;63461;51.416;6.758;2023-04-03T06:43:12;3.90;99.90
74901;DHT22;63461;51.416;6.758;2023-04-03T06:46:30;3.90;99.90
74901;DHT22;63461;51.416;6.758;2023-04-03T06:49:44;3.90;99.90
74901;DHT22;63461;51.416;6.758;2023-04-03T06:53:09;3.90;99.90
74901;DHT22;63461;51.416;6.758;2023-04-03T06:56:14;4.00;99.90
74901;DHT22;63461;51.416;6.758;2023-04-03T07:05:57;4.10;99.90
74901;DHT22;63461;51.416;6.758;2023-04-03T07:24:56;4.20;99.90
74901;DHT22;63461;51.416;6.758;2023-04-03T07:28:41;4.30;99.90
74901;DHT22;63461;51.416;6.758;2023-04-03T07:32:06;4.30;99.90
74901;DHT22;63461;51.416;6.758;2023-04-03T07:39:52;4.30;99.90
74901;DHT22;63461;51.416;6.758;2023-04-03T07:43:52;4.30;99.90
74901;DHT22;63461;51.416;6.758;2023-04-03T07:51:04;4.40;99.90
74901;DHT22;63461;51.416;6.758;2023-04-03T07:54:43;4.50;99.90
74901;DHT22;63461;51.416;6.758;2023-04-03T07:58:21;4.50;99.90
74901;DHT22;63461;51.416;6.758;2023-04-03T08:02:03;4.50;99.90
74901;DHT22;63461;51.416;6.758;2023-04-03T08:09:12;4.60;99.90
74901;DHT22;63461;51.416;6.758;2023-04-03T08:17:07;4.80;99.90
74901;DHT22;63461;51.416;6.758;2023-04-03T08:24:22;4.90;99.90
74901;DHT22;63461;51.416;6.758;2023-04-03T08:26:57;4.90;99.90
74901;DHT22;63461;51.416;6.758;2023-04-03T08:30:22;5.00;99.90
74901;DHT22;63461;51.416;6.758;2023-04-03T09:33:21;5.70;91.10
74901;DHT22;63461;51.416;6.758;2023-04-03T09:52:18;6.00;86.30
74901;DHT22;63461;51.416;6.758;2023-04-03T09:55:29;6.10;85.90
74901;DHT22;63461;51.416;6.758;2023-04-03T10:23:51;6.40;78.00
74901;DHT22;63461;51.416;6.758;2023-04-03T10:27:03;6.50;77.50
74901;DHT22;63461;51.416;6.758;2023-04-03T10:34:54;6.60;78.10
74901;DHT22;63461;51.416;6.758;2023-04-03T11:16:07;7.10;82.40
74901;DHT22;63461;51.416;6.758;2023-04-03T11:26:29;7.10;79.90
74901;DHT22;63461;51.416;6.758;2023-04-03T11:29:47;7.20;81.20
74901;DHT22;63461;51.416;6.758;2023-04-03T11:41:15;7.40;82.50
74901;DHT22;63461;51.416;6.758;2023-04-03T11:57:18;7.40;81.60
74901;DHT22;63461;51.416;6.758;2023-04-03T12:00:00;7.50;82.30
74901;DHT22;63461;51.416;6.758;2023-04-03T12:04:13;7.50;80.20
74901;DHT22;63461;51.416;6.758;2023-04-03T12:14:16;7.70;78.90
74901;DHT22;63461;51.416;6.758;2023-04-03T12:17:27;7.70;79.10
74901;DHT22;63461;51.416;6.758;2023-04-03T12:36:11;7.90;77.80
74901;DHT22;63461;51.416;6.758;2023-04-03T12:52:05;8.00;77.50
74901;DHT22;63461;51.416;6.758;2023-04-03T12:59:12;8.10;76.00
74901;DHT22;63461;51.416;6.758;2023-04-03T13:07:18;8.10;77.50
74901;DHT22;63461;51.416;6.758;2023-04-03T13:11:00;8.10;77.50
74901;DHT22;63461;51.416;6.758;2023-04-03T13:14:53;8.10;76.60
74901;DHT22;63461;51.416;6.758;2023-04-03T13:18:39;8.10;76.80
74901;DHT22;63461;51.416;6.758;2023-04-03T13:57:27;8.30;76.70
74901;DHT22;63461;51.416;6.758;2023-04-03T14:05:36;8.40;75.60
74901;DHT22;63461;51.416;6.758;2023-04-03T14:09:13;8.40;76.00
74901;DHT22;63461;51.416;6.758;2023-04-03T14:12:40;8.40;74.40
74901;DHT22;63461;51.416;6.758;2023-04-03T14:18:53;8.50;75.70
74901;DHT22;63461;51.416;6.758;2023-04-03T14:31:01;8.40;74.20
74901;DHT22;63461;51.416;6.758;2023-04-03T14:46:53;8.40;76.20
74901;DHT22;63461;51.416;6.758;2023-04-03T14:50:59;8.40;76.00
74901;DHT22;63461;51.416;6.758;2023-04-03T15:07:20;8.60;76.70
74901;DHT22;63461;51.416;6.758;2023-04-03T15:14:48;8.50;77.20
74901;DHT22;63461;51.416;6.758;2023-04-03T15:18:35;8.50;76.20
74901;DHT22;63461;51.416;6.758;2023-04-03T15:21:37;8.50;76.10
74901;DHT22;63461;51.416;6.758;2023-04-03T15:24:58;8.40;76.30
74901;DHT22;63461;51.416;6.758;2023-04-03T15:28:48;8.40;74.90
74901;DHT22;63461;51.416;6.758;2023-04-03T15:35:05;8.50;75.80
74901;DHT22;63461;51.416;6.758;2023-04-03T15:49:10;8.40;76.60
74901;DHT22;63461;51.416;6.758;2023-04-03T16:06:11;8.40;76.90
74901;DHT22;63461;51.416;6.758;2023-04-03T16:14:08;8.30;77.20
74901;DHT22;63461;51.416;6.758;2023-04-03T16:26:20;8.30;78.30
74901;DHT22;63461;51.416;6.758;2023-04-03T16:49:27;8.20;78.30
74901;DHT22;63461;51.416;6.758;2023-04-03T16:52:03;8.20;79.00
74901;DHT22;63461;51.416;6.758;2023-04-03T16:54:30;8.20;78.80
74901;DHT22;63461;51.416;6.758;2023-04-03T16:56:56;8.20;80.00
74901;DHT22;63461;51.416;6.758;2023-04-03T16:59:22;8.20;78.90
74901;DHT22;63461;51.416;6.758;2023-04-03T17:01:48;8.20;78.70
74901;DHT22;63461;51.416;6.758;2023-04-03T17:04:16;8.10;78.40
74901;DHT22;63461;51.416;6.758;2023-04-03T17:06:42;8.00;77.90
74901;DHT22;63461;51.416;6.758;2023-04-03T17:09:08;8.10;78.50
74901;DHT22;63461;51.416;6.758;2023-04-03T17:11:35;8.00;78.40
74901;DHT22;63461;51.416;6.758;2023-04-03T17:14:01;8.00;78.20
74901;DHT22;63461;51.416;6.758;2023-04-03T17:16:27;8.10;79.10
74901;DHT22;63461;51.416;6.758;2023-04-03T17:18:53;8.00;79.00
74901;DHT22;63461;51.416;6.758;2023-04-03T17:21:20;8.00;79.50
74901;DHT22;63461;51.416;6.758;2023-04-03T17:23:51;7.90;79.20
74901;DHT22;63461;51.416;6.758;2023-04-03T17:26:23;7.90;79.80
74901;DHT22;63461;51.416;6.758;2023-04-03T17:28:49;7.80;79.40
74901;DHT22;63461;51.416;6.758;2023-04-03T17:31:18;7.80;79.50
74901;DHT22;63461;51.416;6.758;2023-04-03T17:33:44;7.80;79.20
74901;DHT22;63461;51.416;6.758;2023-04-03T17:36:12;7.80;78.80
74901;DHT22;63461;51.416;6.758;2023-04-03T17:38:42;7.70;79.70
74901;DHT22;63461;51.416;6.758;2023-04-03T17:41:13;7.70;79.40
74901;DHT22;63461;51.416;6.758;2023-04-03T17:43:53;7.60;79.10
74901;DHT22;63461;51.416;6.758;2023-04-03T17:46:38;7.60;79.20
74901;DHT22;63461;51.416;6.758;2023-04-03T17:49:31;7.60;79.20
74901;DHT22;63461;51.416;6.758;2023-04-03T17:56:32;7.50;79.90
74901;DHT22;63461;51.416;6.758;2023-04-03T17:59:28;7.50;80.20
74901;DHT22;63461;51.416;6.758;2023-04-03T18:01:58;7.40;80.20
74901;DHT22;63461;51.416;6.758;2023-04-03T18:04:32;7.40;80.00
74901;DHT22;63461;51.416;6.758;2023-04-03T18:07:23;7.40;80.00
74901;DHT22;63461;51.416;6.758;2023-04-03T18:09:56;7.30;80.40
74901;DHT22;63461;51.416;6.758;2023-04-03T18:12:22;7.30;80.50
74901;DHT22;63461;51.416;6.758;2023-04-03T18:14:49;7.30;80.90
74901;DHT22;63461;51.416;6.758;2023-04-03T18:17:16;7.20;80.70
74901;DHT22;63461;51.416;6.758;2023-04-03T18:19:43;7.20;81.20
74901;DHT22;63461;51.416;6.758;2023-04-03T18:22:15;7.20;80.90
74901;DHT22;63461;51.416;6.758;2023-04-03T18:24:42;7.20;81.10
74901;DHT22;63461;51.416;6.758;2023-04-03T18:27:19;7.10;81.10
74901;DHT22;63461;51.416;6.758;2023-04-03T18:29:51;7.10;80.50
74901;DHT22;63461;51.416;6.758;2023-04-03T18:32:19;7.10;81.00
74901;DHT22;63461;51.416;6.758;2023-04-03T18:34:45;7.10;80.90
74901;DHT22;63461;51.416;6.758;2023-04-03T18:37:14;7.00;80.80
74901;DHT22;63461;51.416;6.758;2023-04-03T18:39:40;7.00;81.30
74901;DHT22;63461;51.416;6.758;2023-04-03T18:42:10;7.00;81.30
74901;DHT22;63461;51.416;6.758;2023-04-03T18:44:38;7.00;81.50
74901;DHT22;63461;51.416;6.758;2023-04-03T18:47:05;6.90;81.80
74901;DHT22;63461;51.416;6.758;2023-04-03T18:49:33;6.90;82.40
74901;DHT22;63461;51.416;6.758;2023-04-03T18:52:01;6.90;82.20
74901;DHT22;63461;51.416;6.758;2023-04-03T18:54:27;6.90;82.10
74901;DHT22;63461;51.416;6.758;2023-04-03T18:56:53;6.80;82.40
74901;DHT22;63461;51.416;6.758;2023-04-03T18:59:18;6.80;82.60
74901;DHT22;63461;51.416;6.758;2023-04-03T19:01:44;6.80;82.90
74901;DHT22;63461;51.416;6.758;2023-04-03T19:04:10;6.80;83.10
74901;DHT22;63461;51.416;6.758;2023-04-03T19:06:36;6.80;83.50
74901;DHT22;63461;51.416;6.758;2023-04-03T19:09:04;6.70;83.50
74901;DHT22;63461;51.416;6.758;2023-04-03T19:11:31;6.70;83.60
74901;DHT22;63461;51.416;6.758;2023-04-03T19:13:57;6.70;83.80
74901;DHT22;63461;51.416;6.758;2023-04-03T19:16:23;6.70;84.10
74901;DHT22;63461;51.416;6.758;2023-04-03T19:18:52;6.70;84.70
74901;DHT22;63461;51.416;6.758;2023-04-03T19:21:17;6.70;84.90
74901;DHT22;63461;51.416;6.758;2023-04-03T19:23:43;6.70;84.90
74901;DHT22;63461;51.416;6.758;2023-04-03T19:26:11;6.60;84.80
74901;DHT22;63461;51.416;6.758;2023-04-03T19:28:38;6.60;84.80
74901;DHT22;63461;51.416;6.758;2023-04-03T19:31:16;6.60;85.00
74901;DHT22;63461;51.416;6.758;2023-04-03T19:33:42;6.60;85.30
74901;DHT22;63461;51.416;6.758;2023-04-03T19:36:10;6.60;85.50
74901;DHT22;63461;51.416;6.758;2023-04-03T19:38:36;6.50;85.40
74901;DHT22;63461;51.416;6.758;2023-04-03T19:41:14;6.50;85.80
74901;DHT22;63461;51.416;6.758;2023-04-03T19:43:42;6.50;86.00
74901;DHT22;63461;51.416;6.758;2023-04-03T19:46:08;6.50;86.20
74901;DHT22;63461;51.416;6.758;2023-04-03T19:48:35;6.40;85.70
74901;DHT22;63461;51.416;6.758;2023-04-03T19:51:01;6.50;85.90
74901;DHT22;63461;51.416;6.758;2023-04-03T19:53:29;6.40;86.10
74901;DHT22;63461;51.416;6.758;2023-04-03T19:55:55;6.40;86.40
74901;DHT22;63461;51.416;6.758;2023-04-03T19:58:23;6.40;86.40
74901;DHT22;63461;51.416;6.758;2023-04-03T20:00:49;6.40;86.60
74901;DHT22;63461;51.416;6.758;2023-04-03T20:03:15;6.40;86.40
74901;DHT22;63461;51.416;6.758;2023-04-03T20:05:44;6.40;86.50
74901;DHT22;63461;51.416;6.758;2023-04-03T20:08:11;6.30;86.70
74901;DHT22;63461;51.416;6.758;2023-04-03T20:10:37;6.30;86.60
74901;DHT22;63461;51.416;6.758;2023-04-03T20:13:08;6.30;86.90
74901;DHT22;63461;51.416;6.758;2023-04-03T20:15:38;6.30;87.00
74901;DHT22;63461;51.416;6.758;2023-04-03T20:18:14;6.20;87.40
74901;DHT22;63461;51.416;6.758;2023-04-03T20:20:56;6.20;87.40
74901;DHT22;63461;51.416;6.758;2023-04-03T20:23:24;6.20;88.10
74901;DHT22;63461;51.416;6.758;2023-04-03T20:25:53;6.20;88.10
74901;DHT22;63461;51.416;6.758;2023-04-03T20:28:20;6.20;87.80
74901;DHT22;63461;51.416;6.758;2023-04-03T20:30:48;6.20;88.10
74901;DHT22;63461;51.416;6.758;2023-04-03T20:33:19;6.10;87.90
74901;DHT22;63461;51.416;6.758;2023-04-03T20:35:45;6.10;88.20
74901;DHT22;63461;51.416;6.758;2023-04-03T20:38:13;6.10;88.10
74901;DHT22;63461;51.416;6.758;2023-04-03T20:40:39;6.10;88.10
74901;DHT22;63461;51.416;6.758;2023-04-03T20:43:05;6.00;89.20
74901;DHT22;63461;51.416;6.758;2023-04-03T20:45:32;6.00;88.40
74901;DHT22;63461;51.416;6.758;2023-04-03T20:48:01;6.00;88.60
74901;DHT22;63461;51.416;6.758;2023-04-03T20:50:31;6.00;88.30
74901;DHT22;63461;51.416;6.758;2023-04-03T20:52:58;6.00;89.00
74901;DHT22;63461;51.416;6.758;2023-04-03T20:55:25;5.90;89.00
74901;DHT22;63461;51.416;6.758;2023-04-03T20:57:51;5.90;89.20
74901;DHT22;63461;51.416;6.758;2023-04-03T21:00:19;5.90;89.50
74901;DHT22;63461;51.416;6.758;2023-04-03T21:02:45;5.90;89.30
74901;DHT22;63461;51.416;6.758;2023-04-03T21:05:15;5.90;89.10
74901;DHT22;63461;51.416;6.758;2023-04-03T21:19:21;5.80;90.20
74901;DHT22;63461;51.416;6.758;2023-04-03T21:21:47;5.80;90.30
74901;DHT22;63461;51.416;6.758;2023-04-03T21:24:16;5.70;90.40
74901;DHT22;63461;51.416;6.758;2023-04-03T21:26:42;5.80;90.80
74901;DHT22;63461;51.416;6.758;2023-04-03T21:29:09;5.80;90.50
74901;DHT22;63461;51.416;6.758;2023-04-03T21:31:56;5.70;90.60
74901;DHT22;63461;51.416;6.758;2023-04-03T21:34:24;5.60;90.70
74901;DHT22;63461;51.416;6.758;2023-04-03T21:37:11;5.60;90.90
74901;DHT22;63461;51.416;6.758;2023-04-03T21:39:37;5.60;91.10
74901;DHT22;63461;51.416;6.758;2023-04-03T21:42:03;5.60;91.00
74901;DHT22;63461;51.416;6.758;2023-04-03T21:44:29;5.60;91.00
74901;DHT22;63461;51.416;6.758;2023-04-03T21:46:55;5.60;90.90
74901;DHT22;63461;51.416;6.758;2023-04-03T21:49:22;5.60;91.00
74901;DHT22;63461;51.416;6.758;2023-04-03T21:51:48;5.60;91.30
74901;DHT22;63461;51.416;6.758;2023-04-03T21:54:16;5.60;91.60
74901;DHT22;63461;51.416;6.758;2023-04-03T21:56:42;5.50;91.30
74901;DHT22;63461;51.416;6.758;2023-04-03T21:59:08;5.50;91.30
74901;DHT22;63461;51.416;6.758;2023-04-03T22:01:34;5.50;91.40
74901;DHT22;63461;51.416;6.758;2023-04-03T22:04:00;5.50;91.50
74901;DHT22;63461;51.416;6.758;2023-04-03T22:06:27;5.50;91.70
74901;DHT22;63461;51.416;6.758;2023-04-03T22:08:53;5.40;91.90
74901;DHT22;63461;51.416;6.758;2023-04-03T22:11:18;5.40;91.80
74901;DHT22;63461;51.416;6.758;2023-04-03T22:13:50;5.40;92.10
74901;DHT22;63461;51.416;6.758;2023-04-03T22:16:16;5.40;92.00
74901;DHT22;63461;51.416;6.758;2023-04-03T22:18:42;5.30;92.30
74901;DHT22;63461;51.416;6.758;2023-04-03T22:21:08;5.30;92.10
74901;DHT22;63461;51.416;6.758;2023-04-03T22:23:34;5.30;92.10
74901;DHT22;63461;51.416;6.758;2023-04-03T22:26:05;5.30;92.50
74901;DHT22;63461;51.416;6.758;2023-04-03T22:28:33;5.30;92.50
74901;DHT22;63461;51.416;6.758;2023-04-03T22:31:03;5.30;92.80
74901;DHT22;63461;51.416;6.758;2023-04-03T22:33:29;5.20;92.80
74901;DHT22;63461;51.416;6.758;2023-04-03T22:35:55;5.20;93.00
74901;DHT22;63461;51.416;6.758;2023-04-03T22:38:21;5.20;93.10
74901;DHT22;63461;51.416;6.758;2023-04-03T22:40:58;5.20;93.10
74901;DHT22;63461;51.416;6.758;2023-04-03T22:43:26;5.20;93.40
74901;DHT22;63461;51.416;6.758;2023-04-03T22:45:52;5.10;93.50
74901;DHT22;63461;51.416;6.758;2023-04-03T22:48:18;5.10;93.30
74901;DHT22;63461;51.416;6.758;2023-04-03T22:50:44;5.10;93.50
74901;DHT22;63461;51.416;6.758;2023-04-03T22:53:11;5.10;93.80
74901;DHT22;63461;51.416;6.758;2023-04-03T22:55:37;5.10;93.50
74901;DHT22;63461;51.416;6.758;2023-04-03T22:58:03;5.10;93.30
74901;DHT22;63461;51.416;6.758;2023-04-03T23:00:30;5.10;93.50
74901;DHT22;63461;51.416;6.758;2023-04-03T23:02:59;5.00;93.70
74901;DHT22;63461;51.416;6.758;2023-04-03T23:05:29;5.00;93.70
74901;DHT22;63461;51.416;6.758;2023-04-03T23:07:54;5.00;93.70
74901;DHT22;63461;51.416;6.758;2023-04-03T23:10:20;5.00;93.90
74901;DHT22;63461;51.416;6.758;2023-04-03T23:12:46;4.90;94.10
74901;DHT22;63461;51.416;6.758;2023-04-03T23:15:12;4.90;93.90
74901;DHT22;63461;51.416;6.758;2023-04-03T23:17:43;4.90;94.10
74901;DHT22;63461;51.416;6.758;2023-04-03T23:20:09;4.90;94.10
74901;DHT22;63461;51.416;6.758;2023-04-03T23:22:34;4.90;94.10
74901;DHT22;63461;51.416;6.758;2023-04-03T23:25:00;4.90;94.80
74901;DHT22;63461;51.416;6.758;2023-04-03T23:27:26;4.90;94.80
74901;DHT22;63461;51.416;6.758;2023-04-03T23:29:52;4.80;94.90
74901;DHT22;63461;51.416;6.758;2023-04-03T23:32:18;4.80;95.40
74901;DHT22;63461;51.416;6.758;2023-04-03T23:34:43;4.80;95.50
74901;DHT22;63461;51.416;6.758;2023-04-03T23:37:12;4.80;95.50
74901;DHT22;63461;51.416;6.758;2023-04-03T23:39:38;4.70;95.50
74901;DHT22;63461;51.416;6.758;2023-04-03T23:42:04;4.80;95.80
74901;DHT22;63461;51.416;6.758;2023-04-03T23:44:35;4.80;95.70
74901;DHT22;63461;51.416;6.758;2023-04-03T23:47:01;4.70;95.70
74901;DHT22;63461;51.416;6.758;2023-04-03T23:49:26;4.70;96.40
74901;DHT22;63461;51.416;6.758;2023-04-03T23:51:53;4.70;96.20
74901;DHT22;63461;51.416;6.758;2023-04-03T23:54:21;4.70;96.40
74901;DHT22;63461;51.416;6.758;2023-04-03T23:56:47;4.60;96.40
74901;DHT22;63461;51.416;6.758;2023-04-03T23:59:13;4.60;96.40
